< < Back
Terminal Aerodrome Forecast


Current Version              Previous Versions:   1  2  3  4  5  6  7  8  9  

Terminal Aerodrome Forecast

897
FTUS44 KMRX 022333
TAFTYS
TAF
KTYS 022333Z 0300/0324 05003KT P6SM SCT250
     FM031800 25006KT P6SM SCT250=

Latest METAR

947
SAUS80 KWBC 040200
MTRTYS
METAR KTYS 040153Z 18003KT 10SM FEW120 19/10 A3015 RMK AO2 SLP201
T01940100


USA.gov is the U.S. government's official web portal to all federal, state and local government web resources and services.